sensor_id;sensor_type;location;lat;lon;timestamp;P1;durP1;ratioP1;P2;durP2;ratioP2
6640;SDS011;3356;49.360;8.266;2022-08-19T00:01:56;27.33;;;20.97;;
6640;SDS011;3356;49.360;8.266;2022-08-19T00:03:59;27.53;;;24.53;;
6640;SDS011;3356;49.360;8.266;2022-08-19T00:06:01;28.53;;;24.63;;
6640;SDS011;3356;49.360;8.266;2022-08-19T00:08:03;28.93;;;25.67;;
6640;SDS011;3356;49.360;8.266;2022-08-19T00:10:05;30.47;;;24.67;;
6640;SDS011;3356;49.360;8.266;2022-08-19T00:12:07;28.43;;;25.33;;
6640;SDS011;3356;49.360;8.266;2022-08-19T00:14:10;28.63;;;25.30;;
6640;SDS011;3356;49.360;8.266;2022-08-19T00:16:12;31.93;;;23.63;;
6640;SDS011;3356;49.360;8.266;2022-08-19T00:18:13;26.80;;;23.77;;
6640;SDS011;3356;49.360;8.266;2022-08-19T00:20:16;28.13;;;24.83;;
6640;SDS011;3356;49.360;8.266;2022-08-19T00:22:19;29.00;;;25.47;;
6640;SDS011;3356;49.360;8.266;2022-08-19T00:24:20;28.87;;;25.30;;
6640;SDS011;3356;49.360;8.266;2022-08-19T00:26:21;27.20;;;24.37;;
6640;SDS011;3356;49.360;8.266;2022-08-19T00:28:22;26.73;;;22.63;;
6640;SDS011;3356;49.360;8.266;2022-08-19T00:30:23;25.43;;;22.83;;
6640;SDS011;3356;49.360;8.266;2022-08-19T00:32:24;25.20;;;22.47;;
6640;SDS011;3356;49.360;8.266;2022-08-19T00:34:26;25.27;;;22.40;;
6640;SDS011;3356;49.360;8.266;2022-08-19T00:36:30;21.87;;;19.53;;
6640;SDS011;3356;49.360;8.266;2022-08-19T00:38:33;23.07;;;20.50;;
6640;SDS011;3356;49.360;8.266;2022-08-19T00:40:35;25.97;;;22.00;;
6640;SDS011;3356;49.360;8.266;2022-08-19T00:42:36;24.37;;;21.30;;
6640;SDS011;3356;49.360;8.266;2022-08-19T00:44:37;25.13;;;21.27;;
6640;SDS011;3356;49.360;8.266;2022-08-19T00:46:40;23.50;;;21.10;;
6640;SDS011;3356;49.360;8.266;2022-08-19T00:48:45;22.83;;;20.43;;
6640;SDS011;3356;49.360;8.266;2022-08-19T00:50:47;23.43;;;20.97;;
6640;SDS011;3356;49.360;8.266;2022-08-19T00:52:51;25.33;;;19.70;;
6640;SDS011;3356;49.360;8.266;2022-08-19T00:54:53;23.63;;;21.17;;
6640;SDS011;3356;49.360;8.266;2022-08-19T00:56:55;21.53;;;19.23;;
6640;SDS011;3356;49.360;8.266;2022-08-19T00:58:56;24.20;;;21.40;;
6640;SDS011;3356;49.360;8.266;2022-08-19T01:00:59;23.27;;;20.07;;
6640;SDS011;3356;49.360;8.266;2022-08-19T01:03:01;24.83;;;20.10;;
6640;SDS011;3356;49.360;8.266;2022-08-19T01:05:12;24.30;;;21.20;;
6640;SDS011;3356;49.360;8.266;2022-08-19T01:07:21;23.50;;;20.50;;
6640;SDS011;3356;49.360;8.266;2022-08-19T01:09:22;24.73;;;22.07;;
6640;SDS011;3356;49.360;8.266;2022-08-19T01:11:25;23.57;;;21.13;;
6640;SDS011;3356;49.360;8.266;2022-08-19T01:13:32;24.67;;;22.07;;
6640;SDS011;3356;49.360;8.266;2022-08-19T01:16:08;23.77;;;21.27;;
6640;SDS011;3356;49.360;8.266;2022-08-19T01:18:05;25.70;;;22.63;;
6640;SDS011;3356;49.360;8.266;2022-08-19T01:20:17;23.30;;;20.57;;
6640;SDS011;3356;49.360;8.266;2022-08-19T01:24:24;26.97;;;21.77;;
6640;SDS011;3356;49.360;8.266;2022-08-19T01:26:26;25.13;;;20.67;;
6640;SDS011;3356;49.360;8.266;2022-08-19T01:28:28;24.20;;;21.60;;
6640;SDS011;3356;49.360;8.266;2022-08-19T01:30:30;25.80;;;22.10;;
6640;SDS011;3356;49.360;8.266;2022-08-19T01:32:33;25.70;;;22.63;;
6640;SDS011;3356;49.360;8.266;2022-08-19T01:34:35;23.57;;;21.07;;
6640;SDS011;3356;49.360;8.266;2022-08-19T01:36:37;23.20;;;20.73;;
6640;SDS011;3356;49.360;8.266;2022-08-19T01:38:43;26.50;;;21.90;;
6640;SDS011;3356;49.360;8.266;2022-08-19T01:40:45;25.87;;;23.27;;
6640;SDS011;3356;49.360;8.266;2022-08-19T01:42:47;26.17;;;22.07;;
6640;SDS011;3356;49.360;8.266;2022-08-19T01:44:49;25.90;;;22.23;;
6640;SDS011;3356;49.360;8.266;2022-08-19T01:46:51;26.70;;;22.83;;
6640;SDS011;3356;49.360;8.266;2022-08-19T01:48:52;27.40;;;21.23;;
6640;SDS011;3356;49.360;8.266;2022-08-19T01:50:53;25.20;;;21.20;;
6640;SDS011;3356;49.360;8.266;2022-08-19T01:52:54;25.80;;;21.30;;
6640;SDS011;3356;49.360;8.266;2022-08-19T01:54:55;24.73;;;21.30;;
6640;SDS011;3356;49.360;8.266;2022-08-19T01:57:01;27.37;;;23.47;;
6640;SDS011;3356;49.360;8.266;2022-08-19T01:59:08;25.53;;;22.57;;
6640;SDS011;3356;49.360;8.266;2022-08-19T02:01:12;25.50;;;22.80;;
6640;SDS011;3356;49.360;8.266;2022-08-19T02:03:14;26.57;;;23.37;;
6640;SDS011;3356;49.360;8.266;2022-08-19T02:05:16;25.13;;;22.40;;
6640;SDS011;3356;49.360;8.266;2022-08-19T02:07:19;23.60;;;20.97;;
6640;SDS011;3356;49.360;8.266;2022-08-19T02:09:22;27.47;;;23.40;;
6640;SDS011;3356;49.360;8.266;2022-08-19T02:11:30;27.37;;;23.63;;
6640;SDS011;3356;49.360;8.266;2022-08-19T02:13:34;28.87;;;23.27;;
6640;SDS011;3356;49.360;8.266;2022-08-19T02:15:35;28.03;;;24.40;;
6640;SDS011;3356;49.360;8.266;2022-08-19T02:17:36;32.37;;;25.00;;
6640;SDS011;3356;49.360;8.266;2022-08-19T02:19:37;27.20;;;23.47;;
6640;SDS011;3356;49.360;8.266;2022-08-19T02:21:38;30.40;;;25.20;;
6640;SDS011;3356;49.360;8.266;2022-08-19T02:23:39;29.63;;;24.80;;
6640;SDS011;3356;49.360;8.266;2022-08-19T02:25:41;27.07;;;23.63;;
6640;SDS011;3356;49.360;8.266;2022-08-19T02:27:43;27.20;;;24.30;;
6640;SDS011;3356;49.360;8.266;2022-08-19T02:29:45;27.57;;;24.20;;
6640;SDS011;3356;49.360;8.266;2022-08-19T02:31:47;28.83;;;24.77;;
6640;SDS011;3356;49.360;8.266;2022-08-19T02:33:48;28.67;;;25.43;;
6640;SDS011;3356;49.360;8.266;2022-08-19T02:35:50;27.77;;;24.77;;
6640;SDS011;3356;49.360;8.266;2022-08-19T02:37:51;27.30;;;24.00;;
6640;SDS011;3356;49.360;8.266;2022-08-19T02:40:11;27.03;;;23.10;;
6640;SDS011;3356;49.360;8.266;2022-08-19T02:42:12;26.57;;;23.47;;
6640;SDS011;3356;49.360;8.266;2022-08-19T02:44:13;26.37;;;23.63;;
6640;SDS011;3356;49.360;8.266;2022-08-19T02:46:16;26.70;;;23.80;;
6640;SDS011;3356;49.360;8.266;2022-08-19T02:48:22;29.60;;;23.40;;
6640;SDS011;3356;49.360;8.266;2022-08-19T02:50:25;26.77;;;23.70;;
6640;SDS011;3356;49.360;8.266;2022-08-19T02:52:26;24.63;;;21.97;;
6640;SDS011;3356;49.360;8.266;2022-08-19T02:54:28;25.20;;;20.90;;
6640;SDS011;3356;49.360;8.266;2022-08-19T02:56:29;29.43;;;22.83;;
6640;SDS011;3356;49.360;8.266;2022-08-19T02:58:31;25.73;;;22.33;;
6640;SDS011;3356;49.360;8.266;2022-08-19T03:00:32;24.27;;;21.67;;
6640;SDS011;3356;49.360;8.266;2022-08-19T03:02:33;25.67;;;21.80;;
6640;SDS011;3356;49.360;8.266;2022-08-19T03:04:34;23.27;;;20.77;;
6640;SDS011;3356;49.360;8.266;2022-08-19T03:06:37;23.23;;;20.83;;
6640;SDS011;3356;49.360;8.266;2022-08-19T03:08:41;25.53;;;20.80;;
6640;SDS011;3356;49.360;8.266;2022-08-19T03:10:45;26.50;;;21.70;;
6640;SDS011;3356;49.360;8.266;2022-08-19T03:12:47;24.37;;;20.03;;
6640;SDS011;3356;49.360;8.266;2022-08-19T03:14:48;23.47;;;21.03;;
6640;SDS011;3356;49.360;8.266;2022-08-19T03:16:50;23.73;;;20.83;;
6640;SDS011;3356;49.360;8.266;2022-08-19T03:18:53;20.90;;;18.27;;
6640;SDS011;3356;49.360;8.266;2022-08-19T03:20:56;24.77;;;19.20;;
6640;SDS011;3356;49.360;8.266;2022-08-19T03:22:58;21.67;;;19.00;;
6640;SDS011;3356;49.360;8.266;2022-08-19T03:24:59;22.33;;;19.47;;
6640;SDS011;3356;49.360;8.266;2022-08-19T03:27:00;21.20;;;18.93;;
6640;SDS011;3356;49.360;8.266;2022-08-19T03:29:02;22.97;;;20.33;;
6640;SDS011;3356;49.360;8.266;2022-08-19T03:31:10;22.70;;;19.17;;
6640;SDS011;3356;49.360;8.266;2022-08-19T03:33:13;22.93;;;20.53;;
6640;SDS011;3356;49.360;8.266;2022-08-19T03:35:14;21.07;;;18.90;;
6640;SDS011;3356;49.360;8.266;2022-08-19T03:37:15;21.67;;;18.90;;
6640;SDS011;3356;49.360;8.266;2022-08-19T03:39:16;21.27;;;19.07;;
6640;SDS011;3356;49.360;8.266;2022-08-19T03:41:19;21.33;;;19.03;;
6640;SDS011;3356;49.360;8.266;2022-08-19T03:43:23;22.07;;;19.30;;
6640;SDS011;3356;49.360;8.266;2022-08-19T03:45:25;20.73;;;18.53;;
6640;SDS011;3356;49.360;8.266;2022-08-19T03:47:26;20.13;;;18.00;;
6640;SDS011;3356;49.360;8.266;2022-08-19T03:49:28;20.47;;;17.83;;
6640;SDS011;3356;49.360;8.266;2022-08-19T03:51:32;20.47;;;17.97;;
6640;SDS011;3356;49.360;8.266;2022-08-19T03:53:35;20.17;;;18.03;;
6640;SDS011;3356;49.360;8.266;2022-08-19T03:55:40;20.03;;;17.33;;
6640;SDS011;3356;49.360;8.266;2022-08-19T03:57:41;20.03;;;17.93;;
6640;SDS011;3356;49.360;8.266;2022-08-19T03:59:43;18.57;;;16.63;;
6640;SDS011;3356;49.360;8.266;2022-08-19T04:01:44;20.87;;;17.07;;
6640;SDS011;3356;49.360;8.266;2022-08-19T04:03:46;16.73;;;15.00;;
6640;SDS011;3356;49.360;8.266;2022-08-19T04:05:47;19.13;;;16.93;;
6640;SDS011;3356;49.360;8.266;2022-08-19T04:07:48;22.07;;;17.43;;
6640;SDS011;3356;49.360;8.266;2022-08-19T04:09:49;19.13;;;17.03;;
6640;SDS011;3356;49.360;8.266;2022-08-19T04:11:53;20.63;;;16.97;;
6640;SDS011;3356;49.360;8.266;2022-08-19T04:13:56;20.27;;;15.33;;
6640;SDS011;3356;49.360;8.266;2022-08-19T04:15:58;16.77;;;15.17;;
6640;SDS011;3356;49.360;8.266;2022-08-19T04:17:59;18.53;;;15.87;;
6640;SDS011;3356;49.360;8.266;2022-08-19T04:20:00;18.07;;;16.27;;
6640;SDS011;3356;49.360;8.266;2022-08-19T04:22:01;17.30;;;15.50;;
6640;SDS011;3356;49.360;8.266;2022-08-19T04:24:03;17.50;;;15.67;;
6640;SDS011;3356;49.360;8.266;2022-08-19T04:26:04;17.30;;;15.23;;
6640;SDS011;3356;49.360;8.266;2022-08-19T04:28:06;16.97;;;15.20;;
6640;SDS011;3356;49.360;8.266;2022-08-19T04:30:10;16.83;;;15.10;;
6640;SDS011;3356;49.360;8.266;2022-08-19T04:32:11;15.60;;;13.93;;
6640;SDS011;3356;49.360;8.266;2022-08-19T04:34:16;18.40;;;15.43;;
6640;SDS011;3356;49.360;8.266;2022-08-19T04:36:26;17.67;;;14.83;;
6640;SDS011;3356;49.360;8.266;2022-08-19T04:38:29;16.80;;;15.13;;
6640;SDS011;3356;49.360;8.266;2022-08-19T04:40:30;17.40;;;15.60;;
6640;SDS011;3356;49.360;8.266;2022-08-19T04:42:50;17.90;;;15.67;;
6640;SDS011;3356;49.360;8.266;2022-08-19T04:44:51;18.37;;;15.83;;
6640;SDS011;3356;49.360;8.266;2022-08-19T04:46:52;17.90;;;15.47;;
6640;SDS011;3356;49.360;8.266;2022-08-19T04:48:53;16.90;;;15.13;;
6640;SDS011;3356;49.360;8.266;2022-08-19T04:50:57;17.03;;;15.23;;
6640;SDS011;3356;49.360;8.266;2022-08-19T04:52:59;16.90;;;15.23;;
6640;SDS011;3356;49.360;8.266;2022-08-19T04:55:00;17.27;;;15.57;;
6640;SDS011;3356;49.360;8.266;2022-08-19T04:57:01;15.83;;;13.83;;
6640;SDS011;3356;49.360;8.266;2022-08-19T04:59:03;15.93;;;14.23;;
6640;SDS011;3356;49.360;8.266;2022-08-19T05:01:05;16.93;;;15.23;;
6640;SDS011;3356;49.360;8.266;2022-08-19T05:03:06;17.20;;;15.50;;
6640;SDS011;3356;49.360;8.266;2022-08-19T05:05:08;17.27;;;14.77;;
6640;SDS011;3356;49.360;8.266;2022-08-19T05:07:09;15.70;;;14.10;;
6640;SDS011;3356;49.360;8.266;2022-08-19T05:09:11;18.87;;;15.20;;
6640;SDS011;3356;49.360;8.266;2022-08-19T05:11:13;15.23;;;13.73;;
6640;SDS011;3356;49.360;8.266;2022-08-19T05:13:24;17.90;;;15.53;;
6640;SDS011;3356;49.360;8.266;2022-08-19T05:15:25;16.90;;;15.20;;
6640;SDS011;3356;49.360;8.266;2022-08-19T05:17:27;17.17;;;15.47;;
6640;SDS011;3356;49.360;8.266;2022-08-19T05:19:28;16.37;;;13.83;;
6640;SDS011;3356;49.360;8.266;2022-08-19T05:21:47;16.60;;;14.87;;
6640;SDS011;3356;49.360;8.266;2022-08-19T05:24:07;15.73;;;13.93;;
6640;SDS011;3356;49.360;8.266;2022-08-19T05:26:09;16.27;;;14.70;;
6640;SDS011;3356;49.360;8.266;2022-08-19T05:28:11;18.67;;;14.77;;
6640;SDS011;3356;49.360;8.266;2022-08-19T05:30:12;15.17;;;13.70;;
6640;SDS011;3356;49.360;8.266;2022-08-19T05:32:14;16.90;;;14.57;;
6640;SDS011;3356;49.360;8.266;2022-08-19T05:34:16;16.30;;;14.20;;
6640;SDS011;3356;49.360;8.266;2022-08-19T05:36:18;16.97;;;14.57;;
6640;SDS011;3356;49.360;8.266;2022-08-19T05:38:20;16.03;;;14.43;;
6640;SDS011;3356;49.360;8.266;2022-08-19T05:40:21;15.77;;;14.17;;
6640;SDS011;3356;49.360;8.266;2022-08-19T05:42:23;15.23;;;13.67;;
6640;SDS011;3356;49.360;8.266;2022-08-19T05:44:25;17.97;;;14.43;;
6640;SDS011;3356;49.360;8.266;2022-08-19T05:46:27;15.90;;;14.30;;
6640;SDS011;3356;49.360;8.266;2022-08-19T05:48:28;15.27;;;13.50;;
6640;SDS011;3356;49.360;8.266;2022-08-19T05:50:30;19.37;;;14.33;;
6640;SDS011;3356;49.360;8.266;2022-08-19T05:52:31;15.93;;;13.53;;
6640;SDS011;3356;49.360;8.266;2022-08-19T05:54:33;16.27;;;14.23;;
6640;SDS011;3356;49.360;8.266;2022-08-19T05:56:36;16.80;;;13.37;;
6640;SDS011;3356;49.360;8.266;2022-08-19T05:58:38;15.47;;;12.70;;
6640;SDS011;3356;49.360;8.266;2022-08-19T06:00:40;16.10;;;13.23;;
6640;SDS011;3356;49.360;8.266;2022-08-19T06:02:44;15.93;;;13.57;;
6640;SDS011;3356;49.360;8.266;2022-08-19T06:04:45;14.77;;;13.17;;
6640;SDS011;3356;49.360;8.266;2022-08-19T06:06:48;14.90;;;13.17;;
6640;SDS011;3356;49.360;8.266;2022-08-19T06:08:51;15.83;;;14.00;;
6640;SDS011;3356;49.360;8.266;2022-08-19T06:10:52;17.63;;;13.53;;
6640;SDS011;3356;49.360;8.266;2022-08-19T06:12:54;14.03;;;12.63;;
6640;SDS011;3356;49.360;8.266;2022-08-19T06:14:56;14.20;;;12.70;;
6640;SDS011;3356;49.360;8.266;2022-08-19T06:17:00;17.07;;;12.80;;
6640;SDS011;3356;49.360;8.266;2022-08-19T06:19:03;13.83;;;12.37;;
6640;SDS011;3356;49.360;8.266;2022-08-19T06:21:07;14.70;;;12.90;;
6640;SDS011;3356;49.360;8.266;2022-08-19T06:23:08;13.70;;;12.33;;
6640;SDS011;3356;49.360;8.266;2022-08-19T06:25:10;14.07;;;11.97;;
6640;SDS011;3356;49.360;8.266;2022-08-19T06:27:12;14.37;;;12.80;;
6640;SDS011;3356;49.360;8.266;2022-08-19T06:29:14;12.73;;;11.53;;
6640;SDS011;3356;49.360;8.266;2022-08-19T06:31:17;14.33;;;11.43;;
6640;SDS011;3356;49.360;8.266;2022-08-19T06:33:21;12.30;;;10.63;;
6640;SDS011;3356;49.360;8.266;2022-08-19T06:35:22;13.03;;;11.73;;
6640;SDS011;3356;49.360;8.266;2022-08-19T06:37:23;12.37;;;11.17;;
6640;SDS011;3356;49.360;8.266;2022-08-19T06:39:25;13.50;;;12.00;;
6640;SDS011;3356;49.360;8.266;2022-08-19T06:41:29;13.40;;;11.30;;
6640;SDS011;3356;49.360;8.266;2022-08-19T06:43:31;13.00;;;11.43;;
6640;SDS011;3356;49.360;8.266;2022-08-19T06:45:32;13.27;;;11.93;;
6640;SDS011;3356;49.360;8.266;2022-08-19T06:47:34;13.93;;;11.37;;
6640;SDS011;3356;49.360;8.266;2022-08-19T06:49:36;15.13;;;12.60;;
6640;SDS011;3356;49.360;8.266;2022-08-19T06:51:37;13.00;;;11.70;;
6640;SDS011;3356;49.360;8.266;2022-08-19T06:53:39;12.40;;;11.17;;
6640;SDS011;3356;49.360;8.266;2022-08-19T06:55:40;12.87;;;11.67;;
6640;SDS011;3356;49.360;8.266;2022-08-19T06:57:42;12.70;;;11.40;;
6640;SDS011;3356;49.360;8.266;2022-08-19T06:59:43;11.93;;;10.83;;
6640;SDS011;3356;49.360;8.266;2022-08-19T07:01:45;12.30;;;10.80;;
6640;SDS011;3356;49.360;8.266;2022-08-19T07:03:48;14.87;;;11.93;;
6640;SDS011;3356;49.360;8.266;2022-08-19T07:05:50;11.67;;;10.47;;
6640;SDS011;3356;49.360;8.266;2022-08-19T07:07:54;13.27;;;10.97;;
6640;SDS011;3356;49.360;8.266;2022-08-19T07:09:57;10.70;;;9.47;;
6640;SDS011;3356;49.360;8.266;2022-08-19T07:11:58;11.90;;;10.70;;
6640;SDS011;3356;49.360;8.266;2022-08-19T07:13:59;12.10;;;10.60;;
6640;SDS011;3356;49.360;8.266;2022-08-19T07:16:07;12.30;;;10.63;;
6640;SDS011;3356;49.360;8.266;2022-08-19T07:18:12;12.07;;;10.87;;
6640;SDS011;3356;49.360;8.266;2022-08-19T07:20:13;11.30;;;10.20;;
6640;SDS011;3356;49.360;8.266;2022-08-19T07:22:14;11.57;;;10.33;;
6640;SDS011;3356;49.360;8.266;2022-08-19T07:24:16;10.47;;;9.53;;
6640;SDS011;3356;49.360;8.266;2022-08-19T07:26:22;11.30;;;10.20;;
6640;SDS011;3356;49.360;8.266;2022-08-19T07:28:25;12.03;;;10.40;;
6640;SDS011;3356;49.360;8.266;2022-08-19T07:30:27;11.90;;;10.57;;
6640;SDS011;3356;49.360;8.266;2022-08-19T07:32:28;11.27;;;9.77;;
6640;SDS011;3356;49.360;8.266;2022-08-19T07:34:31;11.37;;;10.17;;
6640;SDS011;3356;49.360;8.266;2022-08-19T07:36:38;11.17;;;10.07;;
6640;SDS011;3356;49.360;8.266;2022-08-19T07:38:42;11.10;;;9.53;;
6640;SDS011;3356;49.360;8.266;2022-08-19T07:40:44;10.33;;;9.33;;
6640;SDS011;3356;49.360;8.266;2022-08-19T07:42:46;12.20;;;11.10;;
6640;SDS011;3356;49.360;8.266;2022-08-19T07:44:47;10.90;;;9.80;;
6640;SDS011;3356;49.360;8.266;2022-08-19T07:46:50;11.83;;;10.03;;
6640;SDS011;3356;49.360;8.266;2022-08-19T07:48:53;10.77;;;8.97;;
6640;SDS011;3356;49.360;8.266;2022-08-19T07:50:55;12.23;;;8.47;;
6640;SDS011;3356;49.360;8.266;2022-08-19T07:53:02;10.97;;;9.87;;
6640;SDS011;3356;49.360;8.266;2022-08-19T07:55:03;10.47;;;9.40;;
6640;SDS011;3356;49.360;8.266;2022-08-19T07:57:05;12.37;;;10.30;;
6640;SDS011;3356;49.360;8.266;2022-08-19T07:59:07;13.00;;;9.83;;
6640;SDS011;3356;49.360;8.266;2022-08-19T08:01:11;16.00;;;12.60;;
6640;SDS011;3356;49.360;8.266;2022-08-19T08:03:15;12.00;;;10.57;;
6640;SDS011;3356;49.360;8.266;2022-08-19T08:05:17;11.87;;;9.53;;
6640;SDS011;3356;49.360;8.266;2022-08-19T08:07:38;14.83;;;9.70;;
6640;SDS011;3356;49.360;8.266;2022-08-19T08:09:57;9.50;;;8.50;;
6640;SDS011;3356;49.360;8.266;2022-08-19T08:12:01;11.23;;;8.67;;
6640;SDS011;3356;49.360;8.266;2022-08-19T08:14:08;10.37;;;9.07;;
6640;SDS011;3356;49.360;8.266;2022-08-19T08:16:10;9.70;;;8.70;;
6640;SDS011;3356;49.360;8.266;2022-08-19T08:18:11;10.70;;;8.30;;
6640;SDS011;3356;49.360;8.266;2022-08-19T08:20:13;12.73;;;10.97;;
6640;SDS011;3356;49.360;8.266;2022-08-19T08:22:15;11.13;;;10.03;;
6640;SDS011;3356;49.360;8.266;2022-08-19T08:24:37;15.47;;;10.70;;
6640;SDS011;3356;49.360;8.266;2022-08-19T08:26:39;13.97;;;8.97;;
6640;SDS011;3356;49.360;8.266;2022-08-19T08:28:41;11.53;;;10.27;;
6640;SDS011;3356;49.360;8.266;2022-08-19T08:30:42;11.43;;;9.48;;
6640;SDS011;3356;49.360;8.266;2022-08-19T08:32:44;9.73;;;8.82;;
6640;SDS011;3356;49.360;8.266;2022-08-19T08:34:45;9.75;;;8.10;;
6640;SDS011;3356;49.360;8.266;2022-08-19T08:36:46;9.75;;;7.93;;
6640;SDS011;3356;49.360;8.266;2022-08-19T08:38:48;11.45;;;9.45;;
6640;SDS011;3356;49.360;8.266;2022-08-19T08:41:00;11.45;;;8.35;;
6640;SDS011;3356;49.360;8.266;2022-08-19T08:45:27;7.75;;;7.05;;
6640;SDS011;3356;49.360;8.266;2022-08-19T08:47:31;7.93;;;7.13;;
6640;SDS011;3356;49.360;8.266;2022-08-19T08:49:40;7.75;;;7.05;;
6640;SDS011;3356;49.360;8.266;2022-08-19T08:54:11;8.60;;;7.85;;
6640;SDS011;3356;49.360;8.266;2022-08-19T08:56:14;7.90;;;7.20;;
6640;SDS011;3356;49.360;8.266;2022-08-19T08:58:21;10.98;;;7.38;;
6640;SDS011;3356;49.360;8.266;2022-08-19T09:00:33;8.98;;;6.20;;
6640;SDS011;3356;49.360;8.266;2022-08-19T09:02:41;7.22;;;6.53;;
6640;SDS011;3356;49.360;8.266;2022-08-19T09:04:43;8.32;;;6.03;;
6640;SDS011;3356;49.360;8.266;2022-08-19T09:11:25;9.18;;;7.45;;
6640;SDS011;3356;49.360;8.266;2022-08-19T09:14:02;8.35;;;6.70;;
6640;SDS011;3356;49.360;8.266;2022-08-19T09:16:15;8.02;;;6.68;;
6640;SDS011;3356;49.360;8.266;2022-08-19T09:18:21;7.82;;;7.13;;
6640;SDS011;3356;49.360;8.266;2022-08-19T09:20:23;8.60;;;7.70;;
6640;SDS011;3356;49.360;8.266;2022-08-19T09:22:24;7.90;;;7.15;;
6640;SDS011;3356;49.360;8.266;2022-08-19T09:24:27;10.30;;;7.47;;
6640;SDS011;3356;49.360;8.266;2022-08-19T09:26:28;9.90;;;9.00;;
6640;SDS011;3356;49.360;8.266;2022-08-19T09:28:30;10.88;;;9.05;;
6640;SDS011;3356;49.360;8.266;2022-08-19T09:30:33;10.85;;;9.35;;
6640;SDS011;3356;49.360;8.266;2022-08-19T09:32:40;9.77;;;8.77;;
6640;SDS011;3356;49.360;8.266;2022-08-19T09:34:42;10.02;;;8.98;;
6640;SDS011;3356;49.360;8.266;2022-08-19T09:36:44;10.32;;;9.23;;
6640;SDS011;3356;49.360;8.266;2022-08-19T09:38:45;9.70;;;8.80;;
6640;SDS011;3356;49.360;8.266;2022-08-19T09:40:46;9.77;;;8.82;;
6640;SDS011;3356;49.360;8.266;2022-08-19T09:42:48;8.15;;;6.75;;
6640;SDS011;3356;49.360;8.266;2022-08-19T09:44:49;7.80;;;7.05;;
6640;SDS011;3356;49.360;8.266;2022-08-19T09:46:50;6.75;;;6.00;;
6640;SDS011;3356;49.360;8.266;2022-08-19T09:48:52;7.38;;;6.50;;
6640;SDS011;3356;49.360;8.266;2022-08-19T09:50:54;6.93;;;5.97;;
6640;SDS011;3356;49.360;8.266;2022-08-19T09:52:55;6.93;;;5.93;;
6640;SDS011;3356;49.360;8.266;2022-08-19T09:54:57;8.50;;;6.03;;
6640;SDS011;3356;49.360;8.266;2022-08-19T09:56:58;6.10;;;5.60;;
6640;SDS011;3356;49.360;8.266;2022-08-19T09:59:03;6.22;;;5.70;;
6640;SDS011;3356;49.360;8.266;2022-08-19T10:01:05;6.97;;;6.35;;
6640;SDS011;3356;49.360;8.266;2022-08-19T10:03:07;9.57;;;6.72;;
6640;SDS011;3356;49.360;8.266;2022-08-19T10:05:08;9.13;;;6.80;;
6640;SDS011;3356;49.360;8.266;2022-08-19T10:07:29;6.13;;;5.53;;
6640;SDS011;3356;49.360;8.266;2022-08-19T10:09:30;10.02;;;6.93;;
6640;SDS011;3356;49.360;8.266;2022-08-19T10:11:32;6.93;;;6.32;;
6640;SDS011;3356;49.360;8.266;2022-08-19T10:13:34;8.38;;;6.00;;
6640;SDS011;3356;49.360;8.266;2022-08-19T10:15:37;8.45;;;6.25;;
6640;SDS011;3356;49.360;8.266;2022-08-19T10:17:39;6.38;;;5.72;;
6640;SDS011;3356;49.360;8.266;2022-08-19T10:19:41;8.40;;;7.43;;
6640;SDS011;3356;49.360;8.266;2022-08-19T10:21:42;6.22;;;5.63;;
6640;SDS011;3356;49.360;8.266;2022-08-19T10:23:44;5.03;;;4.63;;
6640;SDS011;3356;49.360;8.266;2022-08-19T10:25:48;9.95;;;6.20;;
6640;SDS011;3356;49.360;8.266;2022-08-19T10:27:50;6.35;;;5.75;;
6640;SDS011;3356;49.360;8.266;2022-08-19T10:29:51;6.63;;;5.88;;
6640;SDS011;3356;49.360;8.266;2022-08-19T10:31:52;6.55;;;5.95;;
6640;SDS011;3356;49.360;8.266;2022-08-19T10:33:54;7.93;;;7.13;;
6640;SDS011;3356;49.360;8.266;2022-08-19T10:36:01;5.90;;;5.50;;
6640;SDS011;3356;49.360;8.266;2022-08-19T10:38:04;5.80;;;5.40;;
6640;SDS011;3356;49.360;8.266;2022-08-19T10:40:06;7.35;;;6.70;;
6640;SDS011;3356;49.360;8.266;2022-08-19T10:42:08;6.88;;;6.28;;
6640;SDS011;3356;49.360;8.266;2022-08-19T10:44:14;8.48;;;7.72;;
6640;SDS011;3356;49.360;8.266;2022-08-19T10:46:17;9.52;;;8.60;;
6640;SDS011;3356;49.360;8.266;2022-08-19T10:48:18;8.02;;;7.28;;
6640;SDS011;3356;49.360;8.266;2022-08-19T10:50:19;7.95;;;7.25;;
6640;SDS011;3356;49.360;8.266;2022-08-19T10:52:39;8.90;;;8.07;;
6640;SDS011;3356;49.360;8.266;2022-08-19T10:54:42;8.10;;;7.40;;
6640;SDS011;3356;49.360;8.266;2022-08-19T10:57:02;8.80;;;6.32;;
6640;SDS011;3356;49.360;8.266;2022-08-19T10:59:03;5.90;;;5.40;;
6640;SDS011;3356;49.360;8.266;2022-08-19T11:01:05;6.05;;;5.55;;
6640;SDS011;3356;49.360;8.266;2022-08-19T11:03:06;7.63;;;6.75;;
6640;SDS011;3356;49.360;8.266;2022-08-19T11:05:08;6.30;;;5.80;;
6640;SDS011;3356;49.360;8.266;2022-08-19T11:07:11;7.07;;;6.18;;
6640;SDS011;3356;49.360;8.266;2022-08-19T11:09:19;8.05;;;7.45;;
6640;SDS011;3356;49.360;8.266;2022-08-19T11:11:24;7.63;;;6.82;;
6640;SDS011;3356;49.360;8.266;2022-08-19T11:13:27;7.43;;;6.78;;
6640;SDS011;3356;49.360;8.266;2022-08-19T11:15:29;6.90;;;6.40;;
6640;SDS011;3356;49.360;8.266;2022-08-19T11:17:34;6.20;;;5.70;;
6640;SDS011;3356;49.360;8.266;2022-08-19T11:19:36;8.23;;;7.13;;
6640;SDS011;3356;49.360;8.266;2022-08-19T11:21:38;7.85;;;6.97;;
6640;SDS011;3356;49.360;8.266;2022-08-19T11:23:41;7.20;;;5.97;;
6640;SDS011;3356;49.360;8.266;2022-08-19T11:25:42;6.32;;;5.78;;
6640;SDS011;3356;49.360;8.266;2022-08-19T11:27:43;7.13;;;6.07;;
6640;SDS011;3356;49.360;8.266;2022-08-19T11:29:45;6.78;;;5.93;;
6640;SDS011;3356;49.360;8.266;2022-08-19T11:31:46;7.40;;;5.93;;
6640;SDS011;3356;49.360;8.266;2022-08-19T11:33:48;8.55;;;6.10;;
6640;SDS011;3356;49.360;8.266;2022-08-19T11:35:54;7.03;;;6.30;;
6640;SDS011;3356;49.360;8.266;2022-08-19T11:37:57;9.05;;;7.05;;
6640;SDS011;3356;49.360;8.266;2022-08-19T11:40:00;8.48;;;7.60;;
6640;SDS011;3356;49.360;8.266;2022-08-19T11:42:01;7.15;;;6.28;;
6640;SDS011;3356;49.360;8.266;2022-08-19T11:44:23;7.10;;;6.32;;
6640;SDS011;3356;49.360;8.266;2022-08-19T11:46:24;7.03;;;6.53;;
6640;SDS011;3356;49.360;8.266;2022-08-19T11:48:29;6.82;;;6.18;;
6640;SDS011;3356;49.360;8.266;2022-08-19T11:50:31;6.72;;;6.20;;
6640;SDS011;3356;49.360;8.266;2022-08-19T11:52:32;6.15;;;5.65;;
6640;SDS011;3356;49.360;8.266;2022-08-19T11:54:33;6.82;;;6.18;;
6640;SDS011;3356;49.360;8.266;2022-08-19T11:56:36;7.28;;;6.57;;
6640;SDS011;3356;49.360;8.266;2022-08-19T11:58:38;7.30;;;6.55;;
6640;SDS011;3356;49.360;8.266;2022-08-19T12:00:42;8.05;;;7.13;;
6640;SDS011;3356;49.360;8.266;2022-08-19T12:02:45;7.38;;;6.32;;
6640;SDS011;3356;49.360;8.266;2022-08-19T12:04:46;9.23;;;5.93;;
6640;SDS011;3356;49.360;8.266;2022-08-19T12:06:48;15.07;;;7.55;;
6640;SDS011;3356;49.360;8.266;2022-08-19T12:08:50;6.30;;;5.75;;
6640;SDS011;3356;49.360;8.266;2022-08-19T12:10:52;58.58;;;11.27;;
6640;SDS011;3356;49.360;8.266;2022-08-19T12:12:53;14.93;;;5.25;;
6640;SDS011;3356;49.360;8.266;2022-08-19T12:14:54;4.88;;;4.47;;
6640;SDS011;3356;49.360;8.266;2022-08-19T12:16:58;6.43;;;4.90;;
6640;SDS011;3356;49.360;8.266;2022-08-19T12:19:00;5.93;;;5.40;;
6640;SDS011;3356;49.360;8.266;2022-08-19T12:21:04;5.03;;;4.63;;
6640;SDS011;3356;49.360;8.266;2022-08-19T12:23:06;13.02;;;5.28;;
6640;SDS011;3356;49.360;8.266;2022-08-19T12:25:12;5.57;;;5.15;;
6640;SDS011;3356;49.360;8.266;2022-08-19T12:27:13;6.10;;;4.72;;
6640;SDS011;3356;49.360;8.266;2022-08-19T12:29:15;5.72;;;5.22;;
6640;SDS011;3356;49.360;8.266;2022-08-19T12:31:16;5.93;;;5.43;;
6640;SDS011;3356;49.360;8.266;2022-08-19T12:33:19;5.57;;;5.05;;
6640;SDS011;3356;49.360;8.266;2022-08-19T12:35:24;6.43;;;5.60;;
6640;SDS011;3356;49.360;8.266;2022-08-19T12:37:25;5.10;;;4.70;;
6640;SDS011;3356;49.360;8.266;2022-08-19T12:39:27;5.70;;;5.22;;
6640;SDS011;3356;49.360;8.266;2022-08-19T12:41:28;4.38;;;4.13;;
6640;SDS011;3356;49.360;8.266;2022-08-19T12:43:29;4.68;;;4.28;;